createdAt,value
2022-11-01T00:01:30.731Z,11.60
2022-11-01T00:03:58.188Z,11.67
2022-11-01T00:06:25.723Z,11.68
2022-11-01T00:08:52.939Z,11.65
2022-11-01T00:11:20.565Z,11.63
2022-11-01T00:13:49.378Z,11.47
2022-11-01T00:16:17.455Z,11.56
2022-11-01T00:18:44.755Z,11.41
2022-11-01T00:21:12.333Z,11.38
2022-11-01T00:23:40.030Z,11.43
2022-11-01T00:26:07.565Z,11.46
2022-11-01T00:28:34.825Z,11.56
2022-11-01T00:31:02.197Z,11.63
2022-11-01T00:33:29.555Z,11.37
2022-11-01T00:36:00.394Z,11.36
2022-11-01T00:38:28.293Z,11.33
2022-11-01T00:40:55.949Z,11.40
2022-11-01T00:43:23.406Z,11.33
2022-11-01T00:45:51.115Z,11.36
2022-11-01T00:48:18.572Z,11.41
2022-11-01T00:50:45.774Z,11.43
2022-11-01T00:53:13.131Z,11.47
2022-11-01T00:55:40.897Z,11.51
2022-11-01T00:58:08.316Z,11.57
2022-11-01T01:00:36.124Z,11.47
2022-11-01T01:03:04.954Z,11.41
2022-11-01T01:05:33.488Z,11.46
2022-11-01T01:08:00.968Z,11.50
2022-11-01T01:10:28.186Z,11.38
2022-11-01T01:12:55.565Z,11.31
2022-11-01T01:15:22.827Z,11.33
2022-11-01T01:17:50.099Z,11.33
2022-11-01T01:20:17.305Z,11.34
2022-11-01T01:22:44.891Z,11.33
2022-11-01T01:25:12.193Z,11.34
2022-11-01T01:27:39.470Z,11.41
2022-11-01T01:30:08.245Z,11.44
2022-11-01T01:32:36.010Z,11.41
2022-11-01T01:35:03.409Z,11.43
2022-11-01T01:37:30.855Z,11.33
2022-11-01T01:39:58.150Z,11.36
2022-11-01T01:42:30.469Z,11.30
2022-11-01T01:44:57.680Z,11.26
2022-11-01T01:47:25.780Z,11.23
2022-11-01T01:50:11.361Z,11.29
2022-11-01T01:53:02.310Z,11.23
2022-11-01T01:55:36.131Z,11.15
2022-11-01T01:58:03.756Z,11.23
2022-11-01T02:00:31.353Z,11.24
2022-11-01T02:02:58.945Z,11.23
2022-11-01T02:05:41.438Z,11.22
2022-11-01T02:08:08.674Z,11.19
2022-11-01T02:10:35.980Z,11.20
2022-11-01T02:13:03.534Z,11.19
2022-11-01T02:15:38.871Z,11.23
2022-11-01T02:18:06.138Z,11.20
2022-11-01T02:20:36.462Z,11.20
2022-11-01T02:23:21.890Z,11.15
2022-11-01T02:26:13.003Z,11.24
2022-11-01T02:28:46.667Z,11.30
2022-11-01T02:31:26.116Z,11.19
2022-11-01T02:34:17.520Z,11.17
2022-11-01T02:36:49.641Z,11.19
2022-11-01T02:39:23.186Z,11.16
2022-11-01T02:42:02.198Z,11.13
2022-11-01T02:44:32.909Z,11.06
2022-11-01T02:47:01.474Z,11.09
2022-11-01T02:49:40.010Z,11.09
2022-11-01T02:52:24.355Z,11.13
2022-11-01T02:54:59.286Z,11.10
2022-11-01T02:57:46.829Z,10.99
2022-11-01T03:00:25.994Z,11.09
2022-11-01T03:03:20.675Z,11.16
2022-11-01T03:06:00.144Z,11.10
2022-11-01T03:08:39.035Z,11.06
2022-11-01T03:11:20.040Z,11.09
2022-11-01T03:13:56.613Z,11.05
2022-11-01T03:16:34.801Z,11.07
2022-11-01T03:19:37.694Z,11.09
2022-11-01T03:22:14.175Z,11.10
2022-11-01T03:24:53.077Z,11.06
2022-11-01T03:27:38.116Z,11.09
2022-11-01T03:30:09.929Z,11.09
2022-11-01T03:32:45.986Z,11.07
2022-11-01T03:35:18.241Z,11.07
2022-11-01T03:37:45.715Z,11.06
2022-11-01T03:40:13.781Z,11.00
2022-11-01T03:42:41.148Z,11.00
2022-11-01T03:45:11.352Z,11.05
2022-11-01T03:47:38.672Z,11.07
2022-11-01T03:50:22.290Z,10.99
2022-11-01T03:52:49.823Z,11.05
2022-11-01T03:55:20.890Z,11.06
2022-11-01T03:57:52.405Z,11.00
2022-11-01T04:00:46.795Z,10.98
2022-11-01T04:03:14.487Z,11.00
2022-11-01T04:05:42.068Z,11.00
2022-11-01T04:08:10.389Z,11.00
2022-11-01T04:10:37.784Z,10.96
2022-11-01T04:13:05.504Z,10.89
2022-11-01T04:15:51.635Z,10.89
2022-11-01T04:21:10.405Z,10.91
2022-11-01T04:23:37.738Z,10.89
2022-11-01T04:26:05.602Z,10.86
2022-11-01T04:28:32.917Z,10.89
2022-11-01T04:31:00.323Z,10.91
2022-11-01T04:33:27.604Z,10.95
2022-11-01T04:35:55.139Z,10.89
2022-11-01T04:38:22.544Z,10.92
2022-11-01T04:40:49.802Z,10.79
2022-11-01T04:43:17.000Z,10.86
2022-11-01T04:45:44.292Z,10.88
2022-11-01T04:48:13.769Z,10.89
2022-11-01T04:50:41.955Z,10.83
2022-11-01T04:53:09.995Z,10.86
2022-11-01T04:55:37.373Z,10.85
2022-11-01T04:58:05.039Z,10.79
2022-11-01T05:00:33.436Z,10.86
2022-11-01T05:03:05.336Z,10.83
2022-11-01T05:05:33.131Z,10.75
2022-11-01T05:08:10.681Z,10.76
2022-11-01T05:10:39.840Z,10.80
2022-11-01T05:13:07.147Z,10.79
2022-11-01T05:15:36.898Z,10.86
2022-11-01T05:18:07.201Z,10.83
2022-11-01T05:20:34.428Z,10.82
2022-11-01T05:23:02.558Z,10.83
2022-11-01T05:25:31.527Z,10.89
2022-11-01T05:28:07.455Z,10.82
2022-11-01T05:30:35.216Z,10.83
2022-11-01T05:33:03.042Z,10.88
2022-11-01T05:35:30.676Z,10.89
2022-11-01T05:37:58.074Z,10.88
2022-11-01T05:40:25.645Z,10.86
2022-11-01T05:42:53.161Z,10.76
2022-11-01T05:45:20.621Z,10.79
2022-11-01T05:47:47.916Z,10.83
2022-11-01T05:50:15.730Z,10.86
2022-11-01T05:52:43.334Z,10.80
2022-11-01T05:55:11.135Z,10.86
2022-11-01T05:57:38.482Z,10.91
2022-11-01T06:00:06.732Z,10.88
2022-11-01T06:02:39.814Z,10.89
2022-11-01T06:05:07.534Z,10.96
2022-11-01T06:07:37.818Z,10.92
2022-11-01T06:10:05.564Z,10.98
2022-11-01T06:12:32.807Z,11.02
2022-11-01T06:15:00.238Z,10.95
2022-11-01T06:17:27.655Z,11.06
2022-11-01T06:19:55.143Z,11.06
2022-11-01T06:22:22.448Z,11.16
2022-11-01T06:24:50.154Z,11.15
2022-11-01T06:27:17.419Z,11.07
2022-11-01T06:29:44.851Z,11.15
2022-11-01T06:32:12.086Z,11.17
2022-11-01T06:34:42.384Z,11.13
2022-11-01T06:37:12.197Z,11.00
2022-11-01T06:39:39.437Z,11.15
2022-11-01T06:42:06.893Z,11.16
2022-11-01T06:44:34.131Z,11.07
2022-11-01T06:47:01.548Z,11.15
2022-11-01T06:49:29.691Z,11.12
2022-11-01T06:51:57.071Z,11.10
2022-11-01T06:54:24.454Z,11.12
2022-11-01T06:56:51.925Z,11.22
2022-11-01T06:59:19.287Z,11.36
2022-11-01T07:01:46.833Z,11.37
2022-11-01T07:04:14.198Z,11.50
2022-11-01T07:06:41.519Z,11.47
2022-11-01T07:09:08.769Z,11.47
2022-11-01T07:11:36.063Z,11.41
2022-11-01T07:14:03.352Z,11.53
2022-11-01T07:16:31.781Z,11.36
2022-11-01T07:18:59.005Z,11.36
2022-11-01T07:21:26.507Z,11.56
2022-11-01T07:23:54.410Z,11.44
2022-11-01T07:26:21.725Z,11.53
2022-11-01T07:28:49.126Z,11.60
2022-11-01T07:31:16.419Z,11.57
2022-11-01T07:33:43.696Z,11.58
2022-11-01T07:36:11.167Z,11.58
2022-11-01T07:38:38.787Z,11.70
2022-11-01T07:41:06.377Z,11.81
2022-11-01T07:43:35.841Z,11.79
2022-11-01T07:46:07.419Z,11.84
2022-11-01T07:48:36.943Z,11.77
2022-11-01T07:51:06.252Z,11.58
2022-11-01T07:53:33.834Z,11.51
2022-11-01T07:56:02.134Z,11.51
2022-11-01T07:58:29.425Z,11.56
2022-11-01T08:00:56.914Z,11.64
2022-11-01T08:03:24.326Z,11.67
2022-11-01T08:05:51.605Z,11.73
2022-11-01T08:08:18.801Z,11.84
2022-11-01T08:10:46.277Z,11.68
2022-11-01T08:13:16.709Z,11.77
2022-11-01T08:15:44.741Z,11.98
2022-11-01T08:18:12.176Z,12.24
2022-11-01T08:20:40.957Z,12.32
2022-11-01T08:23:08.383Z,12.37
2022-11-01T08:25:35.809Z,12.37
2022-11-01T08:28:11.732Z,12.52
2022-11-01T08:30:39.589Z,12.50
2022-11-01T08:33:07.069Z,12.33
2022-11-01T08:35:34.770Z,12.28
2022-11-01T08:38:03.602Z,12.43
2022-11-01T08:40:31.589Z,12.37
2022-11-01T08:42:59.039Z,12.24
2022-11-01T08:45:26.630Z,12.02
2022-11-01T08:48:01.249Z,11.84
2022-11-01T08:50:28.733Z,11.89
2022-11-01T08:52:55.950Z,11.94
2022-11-01T08:55:23.326Z,11.89
2022-11-01T08:57:50.798Z,11.96
2022-11-01T09:00:18.283Z,11.92
2022-11-01T09:02:45.678Z,12.06
2022-11-01T09:05:13.067Z,12.19
2022-11-01T09:07:40.303Z,12.25
2022-11-01T09:10:08.268Z,12.18
2022-11-01T09:12:36.088Z,12.30
2022-11-01T09:15:04.736Z,12.43
2022-11-01T09:17:32.071Z,12.35
2022-11-01T09:19:59.632Z,12.45
2022-11-01T09:22:26.957Z,12.53
2022-11-01T09:24:55.631Z,12.63
2022-11-01T09:27:22.846Z,12.50
2022-11-01T09:29:52.012Z,12.49
2022-11-01T09:32:19.458Z,12.43
2022-11-01T09:34:49.116Z,12.56
2022-11-01T09:37:16.819Z,12.59
2022-11-01T09:39:44.123Z,12.56
2022-11-01T09:42:35.799Z,12.61
2022-11-01T09:45:06.181Z,12.46
2022-11-01T09:47:34.015Z,12.53
2022-11-01T09:50:05.922Z,12.63
2022-11-01T09:52:33.306Z,12.57
2022-11-01T09:55:00.679Z,12.61
2022-11-01T09:57:35.764Z,12.73
2022-11-01T10:00:16.360Z,12.68
2022-11-01T10:05:50.932Z,12.80
2022-11-01T10:08:18.225Z,12.85
2022-11-01T10:10:51.492Z,12.91
2022-11-01T10:13:42.102Z,13.00
2022-11-01T10:16:17.573Z,12.98
2022-11-01T10:19:11.603Z,12.95
2022-11-01T10:21:48.123Z,12.98
2022-11-01T10:24:45.825Z,13.03
2022-11-01T10:27:18.771Z,13.26
2022-11-01T10:30:08.063Z,13.21
2022-11-01T10:32:37.578Z,13.35
2022-11-01T10:35:06.786Z,13.25
2022-11-01T10:37:57.451Z,13.26
2022-11-01T10:40:36.637Z,13.42
2022-11-01T10:43:06.152Z,13.38
2022-11-01T10:45:33.828Z,13.62
2022-11-01T10:48:01.469Z,13.61
2022-11-01T10:50:29.307Z,13.70
2022-11-01T10:53:03.512Z,13.67
2022-11-01T10:55:48.857Z,13.82
2022-11-01T10:58:48.634Z,13.93
2022-11-01T11:01:20.191Z,13.96
2022-11-01T11:03:47.575Z,14.16
2022-11-01T11:06:15.931Z,14.01
2022-11-01T11:08:44.518Z,14.03
2022-11-01T11:11:14.532Z,14.13
2022-11-01T11:13:44.285Z,13.99
2022-11-01T11:16:19.280Z,14.11
2022-11-01T11:19:22.833Z,14.21
2022-11-01T11:21:51.810Z,14.42
2022-11-01T11:24:23.778Z,14.41
2022-11-01T11:26:57.305Z,14.51
2022-11-01T11:29:45.307Z,14.45
2022-11-01T11:32:18.052Z,14.48
2022-11-01T11:34:50.418Z,14.30
2022-11-01T11:37:23.148Z,13.99
2022-11-01T11:40:12.638Z,13.70
2022-11-01T11:42:40.074Z,13.65
2022-11-01T11:45:20.347Z,13.83
2022-11-01T11:47:50.491Z,13.97
2022-11-01T11:50:23.825Z,14.04
2022-11-01T11:52:59.163Z,14.00
2022-11-01T11:55:26.459Z,14.07
2022-11-01T11:57:54.880Z,14.09
2022-11-01T12:00:24.112Z,14.21
2022-11-01T12:02:51.452Z,14.21
2022-11-01T12:05:19.890Z,14.04
2022-11-01T12:07:51.609Z,13.79
2022-11-01T12:10:38.815Z,13.72
2022-11-01T12:13:28.128Z,13.82
2022-11-01T12:16:14.807Z,13.97
2022-11-01T12:18:50.530Z,13.94
2022-11-01T12:21:23.661Z,13.94
2022-11-01T12:23:57.267Z,13.76
2022-11-01T12:26:24.568Z,13.91
2022-11-01T12:28:57.153Z,14.14
2022-11-01T12:31:28.816Z,14.18
2022-11-01T12:34:03.585Z,14.20
2022-11-01T12:36:36.092Z,14.04
2022-11-01T12:39:18.527Z,14.44
2022-11-01T12:41:52.945Z,14.92
2022-11-01T12:44:42.202Z,14.76
2022-11-01T12:47:30.692Z,14.69
2022-11-01T12:50:06.399Z,14.58
2022-11-01T12:52:37.352Z,14.61
2022-11-01T12:55:27.608Z,14.40
2022-11-01T12:57:55.487Z,14.35
2022-11-01T13:00:22.797Z,14.17
2022-11-01T13:03:08.784Z,14.06
2022-11-01T13:05:53.631Z,14.13
2022-11-01T13:08:39.895Z,14.13
2022-11-01T13:11:28.237Z,14.10
2022-11-01T13:14:06.541Z,13.93
2022-11-01T13:16:37.033Z,13.79
2022-11-01T13:19:36.309Z,13.76
2022-11-01T13:22:07.617Z,13.62
2022-11-01T13:24:48.513Z,13.49
2022-11-01T13:27:17.134Z,13.38
2022-11-01T13:30:15.501Z,13.34
2022-11-01T13:32:59.571Z,12.97
2022-11-01T13:35:57.788Z,13.03
2022-11-01T13:38:45.248Z,13.07
2022-11-01T13:41:24.665Z,13.15
2022-11-01T13:43:54.815Z,13.22
2022-11-01T13:46:37.510Z,13.16
2022-11-01T13:49:20.111Z,13.26
2022-11-01T13:51:50.364Z,13.10
2022-11-01T13:54:43.848Z,13.01
2022-11-01T13:57:15.017Z,13.05
2022-11-01T13:59:44.771Z,12.79
2022-11-01T14:02:24.796Z,12.83
2022-11-01T14:05:03.204Z,12.85
2022-11-01T14:07:43.163Z,12.81
2022-11-01T14:10:31.464Z,12.70
2022-11-01T14:13:07.983Z,12.66
2022-11-01T14:15:39.586Z,12.59
2022-11-01T14:18:11.036Z,12.59
2022-11-01T14:20:43.064Z,12.68
2022-11-01T14:23:28.779Z,12.67
2022-11-01T14:26:21.299Z,12.72
2022-11-01T14:28:49.941Z,12.76
2022-11-01T14:31:18.900Z,12.70
2022-11-01T14:33:48.496Z,12.66
2022-11-01T14:36:16.552Z,12.67
2022-11-01T14:38:50.850Z,12.57
2022-11-01T14:41:18.244Z,12.54
2022-11-01T14:43:47.997Z,12.47
2022-11-01T14:46:25.376Z,12.45
2022-11-01T14:49:15.908Z,12.49
2022-11-01T14:51:43.277Z,12.36
2022-11-01T14:54:32.209Z,12.40
2022-11-01T14:56:59.585Z,12.43
2022-11-01T14:59:32.119Z,12.40
2022-11-01T15:02:05.361Z,12.43
2022-11-01T15:04:40.407Z,12.45
2022-11-01T15:07:31.313Z,12.28
2022-11-01T15:10:09.923Z,12.19
2022-11-01T15:12:51.162Z,12.22
2022-11-01T15:15:23.890Z,12.26
2022-11-01T15:17:58.804Z,12.25
2022-11-01T15:20:29.218Z,12.22
2022-11-01T15:22:56.622Z,12.29
2022-11-01T15:25:26.711Z,12.30
2022-11-01T15:27:54.758Z,12.28
2022-11-01T15:30:27.398Z,12.29
2022-11-01T15:33:19.688Z,12.18
2022-11-01T15:36:08.366Z,12.06
2022-11-01T15:38:50.432Z,12.05
2022-11-01T15:41:22.136Z,12.08
2022-11-01T15:43:54.082Z,12.06
2022-11-01T15:46:30.555Z,11.94
2022-11-01T15:48:59.043Z,11.92
2022-11-01T15:51:27.747Z,11.98
2022-11-01T15:54:00.326Z,12.05
2022-11-01T15:56:42.503Z,11.92
2022-11-01T15:59:26.910Z,12.02
2022-11-01T16:01:55.748Z,12.04
2022-11-01T16:04:24.886Z,12.05
2022-11-01T16:07:02.776Z,12.05
2022-11-01T16:09:49.689Z,11.99
2022-11-01T16:12:20.271Z,11.98
2022-11-01T16:14:55.581Z,11.85
2022-11-01T16:17:43.078Z,11.85
2022-11-01T16:20:31.889Z,11.85
2022-11-01T16:23:14.916Z,11.85
2022-11-01T16:25:42.285Z,11.88
2022-11-01T16:28:09.550Z,11.92
2022-11-01T16:30:52.199Z,11.99
2022-11-01T16:33:35.682Z,11.89
2022-11-01T16:36:12.183Z,11.77
2022-11-01T16:38:43.750Z,11.81
2022-11-01T16:41:15.423Z,11.81
2022-11-01T16:43:43.059Z,11.85
2022-11-01T16:46:10.313Z,11.79
2022-11-01T16:48:48.437Z,11.82
2022-11-01T16:51:15.792Z,11.88
2022-11-01T16:53:43.896Z,11.78
2022-11-01T16:56:35.490Z,11.73
2022-11-01T16:59:30.114Z,11.56
2022-11-01T17:02:00.097Z,11.54
2022-11-01T17:04:27.726Z,11.75
2022-11-01T17:06:55.996Z,11.71
2022-11-01T17:09:23.324Z,11.71
2022-11-01T17:11:54.077Z,11.56
2022-11-01T17:14:22.135Z,11.57
2022-11-01T17:16:50.454Z,11.56
2022-11-01T17:19:21.505Z,11.58
2022-11-01T17:21:48.758Z,11.51
2022-11-01T17:24:16.923Z,11.56
2022-11-01T17:26:44.268Z,11.61
2022-11-01T17:29:13.907Z,11.53
2022-11-01T17:31:41.178Z,11.47
2022-11-01T17:34:08.410Z,11.53
2022-11-01T17:36:36.354Z,11.50
2022-11-01T17:39:04.228Z,11.51
2022-11-01T17:41:31.684Z,11.53
2022-11-01T17:43:58.926Z,11.50
2022-11-01T17:46:26.420Z,11.60
2022-11-01T17:48:53.643Z,11.64
2022-11-01T17:51:23.171Z,11.57
2022-11-01T17:53:54.700Z,11.54
2022-11-01T17:56:22.917Z,11.61
2022-11-01T17:58:52.795Z,11.61
2022-11-01T18:01:21.287Z,11.75
2022-11-01T18:03:48.951Z,11.77
2022-11-01T18:06:16.873Z,11.82
2022-11-01T18:08:46.671Z,11.75
2022-11-01T18:11:38.318Z,11.70
2022-11-01T18:14:24.455Z,11.77
2022-11-01T18:17:05.660Z,11.68
2022-11-01T18:19:56.724Z,11.61
2022-11-01T18:22:39.852Z,11.63
2022-11-01T18:25:13.359Z,11.64
2022-11-01T18:27:40.647Z,11.53
2022-11-01T18:30:12.763Z,11.48
2022-11-01T18:33:01.276Z,11.48
2022-11-01T18:35:32.014Z,11.48
2022-11-01T18:38:06.250Z,11.51
2022-11-01T18:40:59.376Z,11.53
2022-11-01T18:43:28.779Z,11.60
2022-11-01T18:48:44.573Z,11.68
2022-11-01T18:51:23.454Z,11.54
2022-11-01T18:54:21.321Z,11.53
2022-11-01T18:56:50.807Z,11.71
2022-11-01T18:59:31.753Z,11.74
2022-11-01T19:02:27.588Z,11.67
2022-11-01T19:05:17.835Z,11.63
2022-11-01T19:10:41.591Z,11.67
2022-11-01T19:13:13.246Z,11.78
2022-11-01T19:15:40.547Z,11.74
2022-11-01T19:18:19.177Z,11.82
2022-11-01T19:21:11.235Z,11.84
2022-11-01T19:23:49.592Z,11.89
2022-11-01T19:26:24.257Z,11.95
2022-11-01T19:28:52.604Z,11.87
2022-11-01T19:31:30.622Z,11.98
2022-11-01T19:34:00.204Z,12.06
2022-11-01T19:39:26.321Z,12.14
2022-11-01T19:41:56.799Z,11.98
2022-11-01T19:44:24.849Z,12.04
2022-11-01T19:46:58.987Z,12.14
2022-11-01T19:49:29.257Z,12.01
2022-11-01T19:52:08.804Z,12.05
2022-11-01T19:54:40.475Z,12.01
2022-11-01T19:57:39.621Z,12.02
2022-11-01T20:00:20.864Z,12.09
2022-11-01T20:02:49.475Z,12.06
2022-11-01T20:05:23.725Z,12.02
2022-11-01T20:07:51.294Z,12.09
2022-11-01T20:10:18.494Z,12.18
2022-11-01T20:12:45.856Z,12.14
2022-11-01T20:15:13.317Z,12.12
2022-11-01T20:17:40.660Z,11.96
2022-11-01T20:20:08.506Z,11.94
2022-11-01T20:22:35.920Z,12.01
2022-11-01T20:25:03.281Z,12.14
2022-11-01T20:27:30.790Z,12.08
2022-11-01T20:29:57.998Z,12.19
2022-11-01T20:32:25.291Z,12.16
2022-11-01T20:34:52.632Z,12.21
2022-11-01T20:37:28.432Z,12.06
2022-11-01T20:39:56.300Z,11.98
2022-11-01T20:42:24.402Z,12.19
2022-11-01T20:44:52.138Z,12.29
2022-11-01T20:47:19.401Z,12.21
2022-11-01T20:49:46.744Z,12.05
2022-11-01T20:52:37.795Z,11.82
2022-11-01T20:55:01.264Z,11.92
2022-11-01T20:57:28.808Z,12.11
2022-11-01T20:59:56.300Z,11.77
2022-11-01T21:02:23.732Z,11.88
2022-11-01T21:04:55.060Z,11.95
2022-11-01T21:07:22.384Z,12.05
2022-11-01T21:09:51.822Z,11.87
2022-11-01T21:12:31.571Z,11.98
2022-11-01T21:15:02.280Z,11.82
2022-11-01T21:17:29.581Z,11.94
2022-11-01T21:19:56.854Z,12.01
2022-11-01T21:22:24.167Z,12.04
2022-11-01T21:24:51.484Z,12.08
2022-11-01T21:27:27.005Z,12.09
2022-11-01T21:30:32.396Z,12.01
2022-11-01T21:32:59.735Z,12.08
2022-11-01T21:35:36.200Z,12.12
2022-11-01T21:38:03.965Z,11.99
2022-11-01T21:40:31.441Z,12.06
2022-11-01T21:43:06.036Z,12.12
2022-11-01T21:45:33.327Z,11.88
2022-11-01T21:48:02.956Z,11.95
2022-11-01T21:50:30.674Z,12.06
2022-11-01T21:52:57.876Z,11.73
2022-11-01T21:55:25.167Z,11.71
2022-11-01T21:57:52.489Z,11.75
2022-11-01T22:00:19.865Z,11.63
2022-11-01T22:02:47.211Z,11.61
2022-11-01T22:05:14.900Z,11.60
2022-11-01T22:07:42.107Z,11.41
2022-11-01T22:10:09.823Z,11.40
2022-11-01T22:12:37.106Z,11.41
2022-11-01T22:15:04.778Z,11.40
2022-11-01T22:17:32.010Z,11.47
2022-11-01T22:19:59.357Z,11.36
2022-11-01T22:22:26.562Z,11.41
2022-11-01T22:24:53.894Z,11.44
2022-11-01T22:27:21.237Z,11.40
2022-11-01T22:29:48.486Z,11.38
2022-11-01T22:32:15.665Z,11.29
2022-11-01T22:34:43.063Z,11.15
2022-11-01T22:37:13.425Z,11.19
2022-11-01T22:39:40.766Z,11.22
2022-11-01T22:42:12.105Z,11.23
2022-11-01T22:44:39.700Z,11.31
2022-11-01T22:47:10.120Z,11.30
2022-11-01T22:49:46.103Z,11.33
2022-11-01T22:52:32.062Z,11.22
2022-11-01T22:55:11.429Z,11.29
2022-11-01T22:57:49.574Z,11.37
2022-11-01T23:00:23.234Z,11.30
2022-11-01T23:02:50.882Z,11.38
2022-11-01T23:05:23.880Z,11.47
2022-11-01T23:07:55.342Z,11.47
2022-11-01T23:10:27.543Z,11.47
2022-11-01T23:13:30.134Z,11.46
2022-11-01T23:16:01.848Z,11.31
2022-11-01T23:18:31.949Z,11.29
2022-11-01T23:21:05.640Z,11.38
2022-11-01T23:23:37.938Z,11.48
2022-11-01T23:26:05.460Z,11.40
2022-11-01T23:28:35.998Z,11.43
2022-11-01T23:31:04.352Z,11.31
2022-11-01T23:33:49.881Z,11.17
2022-11-01T23:36:23.327Z,11.17
2022-11-01T23:39:10.566Z,11.27
2022-11-01T23:41:53.228Z,11.34
2022-11-01T23:44:23.337Z,11.34
2022-11-01T23:46:50.818Z,11.47
2022-11-01T23:49:18.846Z,11.53
2022-11-01T23:51:46.155Z,11.51
2022-11-01T23:54:16.620Z,11.56
2022-11-01T23:56:44.063Z,11.43
2022-11-01T23:59:11.283Z,11.46
